Indianapolis, Indiana
Traffic Map
Current Weather Conditions
Indianapolis, Indiana
Broken Clouds
Broken Clouds
69°
Feels Like: 69°
Wind Chill: 69° Ceiling: 1300
Heat Index: 69° Visibility: 8mi
Dew Point: 66° Wind: 10mph
Humidity: 90% Direction: 240° (WSW)
Pressure: 29.81in Gusts: 0mph
Raw Report DataKIND 211001Z 24009KT 8SM BKN013 21/19 A2981 RMK AO2 T02060189
Traffic Incident Summary
Active as of:
Severity:
Category:
InformationThere was an issue retrieving the traffic information for this location. Please try a different location or try again shortly.
Advertisements
Track Severe Weather on mobile